createdAt,value
2019-01-20T00:00:31.079Z,1.10
2019-01-20T00:02:59.482Z,1.10
2019-01-20T00:05:28.427Z,1.00
2019-01-20T00:07:56.865Z,1.00
2019-01-20T00:10:25.595Z,1.00
2019-01-20T00:12:54.059Z,0.90
2019-01-20T00:15:22.523Z,0.90
2019-01-20T00:17:50.983Z,0.90
2019-01-20T00:20:19.809Z,0.80
2019-01-20T00:22:48.334Z,0.80
2019-01-20T00:25:17.185Z,0.80
2019-01-20T00:27:45.976Z,0.70
2019-01-20T00:30:16.975Z,0.70
2019-01-20T00:32:45.627Z,0.70
2019-01-20T00:35:15.895Z,0.60
2019-01-20T00:37:44.814Z,0.60
2019-01-20T00:40:16.984Z,0.50
2019-01-20T00:42:45.571Z,0.50
2019-01-20T00:45:16.793Z,0.50
2019-01-20T00:47:45.298Z,0.50
2019-01-20T00:50:16.018Z,0.50
2019-01-20T00:52:44.971Z,0.50
2019-01-20T00:55:16.198Z,0.40
2019-01-20T00:57:45.145Z,0.40
2019-01-20T01:00:17.608Z,0.30
2019-01-20T01:02:46.515Z,0.30
2019-01-20T01:05:16.534Z,0.30
2019-01-20T01:07:45.107Z,0.20
2019-01-20T01:10:14.118Z,0.20
2019-01-20T01:12:42.997Z,0.30
2019-01-20T01:15:13.923Z,0.20
2019-01-20T01:17:42.325Z,0.20
2019-01-20T01:20:13.647Z,0.20
2019-01-20T01:22:42.396Z,0.10
2019-01-20T01:25:12.573Z,0.10
2019-01-20T01:27:41.759Z,0.10
2019-01-20T01:30:13.818Z,0.00
2019-01-20T01:32:42.490Z,0.10
2019-01-20T01:35:11.394Z,0.10
2019-01-20T01:37:39.801Z,0.00
2019-01-20T01:40:11.635Z,0.00
2019-01-20T01:42:40.252Z,0.00
2019-01-20T01:45:11.970Z,0.00
2019-01-20T01:47:40.864Z,0.00
2019-01-20T01:50:10.977Z,-0.10
2019-01-20T01:52:39.685Z,-0.20
2019-01-20T01:55:09.442Z,-0.20
2019-01-20T01:57:37.895Z,-0.30
2019-01-20T02:00:12.711Z,-0.20
2019-01-20T02:02:41.192Z,-0.30
2019-01-20T02:05:10.452Z,-0.30
2019-01-20T02:07:39.062Z,-0.30
2019-01-20T02:10:10.795Z,-0.30
2019-01-20T02:12:39.594Z,-0.30
2019-01-20T02:15:10.542Z,-0.40
2019-01-20T02:17:38.966Z,-0.40
2019-01-20T02:20:10.439Z,-0.40
2019-01-20T02:22:39.459Z,-0.40
2019-01-20T02:25:08.451Z,-0.40
2019-01-20T02:27:37.224Z,-0.40
2019-01-20T02:30:23.371Z,-0.40
2019-01-20T02:32:51.894Z,-0.40
2019-01-20T02:35:20.374Z,-0.40
2019-01-20T02:37:49.174Z,-0.40
2019-01-20T02:40:18.479Z,-0.40
2019-01-20T02:42:46.994Z,-0.40
2019-01-20T02:45:17.083Z,-0.40
2019-01-20T02:47:45.768Z,-0.40
2019-01-20T02:50:16.624Z,-0.50
2019-01-20T02:52:45.349Z,-0.50
2019-01-20T02:55:14.198Z,-0.50
2019-01-20T02:57:43.268Z,-0.60
2019-01-20T03:00:15.127Z,-0.60
2019-01-20T03:02:43.583Z,-0.60
2019-01-20T03:05:13.906Z,-0.60
2019-01-20T03:07:42.643Z,-0.70
2019-01-20T03:10:13.034Z,-0.70
2019-01-20T03:12:41.450Z,-0.80
2019-01-20T03:15:13.058Z,-0.80
2019-01-20T03:17:41.478Z,-0.80
2019-01-20T03:20:13.102Z,-0.80
2019-01-20T03:22:41.516Z,-0.80
2019-01-20T03:25:12.806Z,-0.80
2019-01-20T03:27:41.291Z,-0.90
2019-01-20T03:30:12.981Z,-0.90
2019-01-20T03:32:41.468Z,-0.90
2019-01-20T03:35:11.069Z,-0.90
2019-01-20T03:37:39.849Z,-1.00
2019-01-20T03:40:11.905Z,-1.00
2019-01-20T03:42:40.489Z,-1.00
2019-01-20T03:45:12.045Z,-1.00
2019-01-20T03:47:40.918Z,-1.00
2019-01-20T03:50:11.723Z,-1.00
2019-01-20T03:52:40.518Z,-1.00
2019-01-20T03:55:11.992Z,-1.10
2019-01-20T03:57:40.903Z,-1.10
2019-01-20T04:00:23.225Z,-1.10
2019-01-20T04:02:53.973Z,-1.10
2019-01-20T04:05:23.161Z,-1.20
2019-01-20T04:07:53.118Z,-1.20
2019-01-20T04:10:22.051Z,-1.20
2019-01-20T04:12:50.489Z,-1.20
2019-01-20T04:15:19.412Z,-1.30
2019-01-20T04:17:47.823Z,-1.30
2019-01-20T04:20:16.607Z,-1.30
2019-01-20T04:22:45.088Z,-1.30
2019-01-20T04:25:18.734Z,-1.30
2019-01-20T04:27:47.395Z,-1.30
2019-01-20T04:30:19.099Z,-1.30
2019-01-20T04:32:48.294Z,-1.30
2019-01-20T04:35:17.180Z,-1.30
2019-01-20T04:37:46.108Z,-1.30
2019-01-20T04:40:19.668Z,-1.30
2019-01-20T04:42:48.186Z,-1.30
2019-01-20T04:45:16.660Z,-1.30
2019-01-20T04:47:45.624Z,-1.30
2019-01-20T04:50:16.691Z,-1.30
2019-01-20T04:52:45.444Z,-1.30
2019-01-20T04:55:15.033Z,-1.40
2019-01-20T04:57:45.603Z,-1.40
2019-01-20T05:00:16.889Z,-1.40
2019-01-20T05:02:45.606Z,-1.40
2019-01-20T05:05:14.222Z,-1.50
2019-01-20T05:07:42.944Z,-1.50
2019-01-20T05:10:13.974Z,-1.50
2019-01-20T05:12:42.394Z,-1.50
2019-01-20T05:15:16.439Z,-1.60
2019-01-20T05:17:44.910Z,-1.60
2019-01-20T05:20:13.807Z,-1.60
2019-01-20T05:22:42.224Z,-1.60
2019-01-20T05:25:11.615Z,-1.60
2019-01-20T05:27:40.351Z,-1.60
2019-01-20T05:30:12.224Z,-1.50
2019-01-20T05:32:40.705Z,-1.60
2019-01-20T05:35:13.761Z,-1.60
2019-01-20T05:37:42.486Z,-1.50
2019-01-20T05:40:17.294Z,-1.50
2019-01-20T05:42:47.000Z,-1.60
2019-01-20T05:45:17.980Z,-1.60
2019-01-20T05:47:46.938Z,-1.60
2019-01-20T05:50:15.885Z,-1.60
2019-01-20T05:52:44.336Z,-1.60
2019-01-20T05:55:14.746Z,-1.60
2019-01-20T05:57:43.639Z,-1.70
2019-01-20T06:00:21.042Z,-1.70
2019-01-20T06:02:49.486Z,-1.70
2019-01-20T06:05:17.898Z,-1.70
2019-01-20T06:07:46.600Z,-1.70
2019-01-20T06:10:15.451Z,-1.70
2019-01-20T06:12:44.044Z,-1.70
2019-01-20T06:15:17.865Z,-1.70
2019-01-20T06:17:46.616Z,-1.70
2019-01-20T06:20:16.413Z,-1.80
2019-01-20T06:22:44.945Z,-1.70
2019-01-20T06:25:13.894Z,-1.70
2019-01-20T06:27:42.577Z,-1.70
2019-01-20T06:30:20.034Z,-1.70
2019-01-20T06:32:48.479Z,-1.70
2019-01-20T06:35:16.889Z,-1.70
2019-01-20T06:37:45.333Z,-1.70
2019-01-20T06:40:14.415Z,-1.80
2019-01-20T06:42:43.093Z,-1.80
2019-01-20T06:45:13.577Z,-1.80
2019-01-20T06:47:42.157Z,-1.80
2019-01-20T06:50:13.518Z,-1.80
2019-01-20T06:52:42.002Z,-1.90
2019-01-20T06:55:11.689Z,-1.90
2019-01-20T06:57:40.628Z,-2.00
2019-01-20T07:00:15.206Z,-2.00
2019-01-20T07:02:43.938Z,-2.00
2019-01-20T07:05:12.558Z,-2.00
2019-01-20T07:07:41.423Z,-2.00
2019-01-20T07:10:12.614Z,-2.00
2019-01-20T07:12:46.498Z,-2.00
2019-01-20T07:15:17.727Z,-2.00
2019-01-20T07:17:46.405Z,-2.00
2019-01-20T07:20:15.959Z,-2.00
2019-01-20T07:22:44.681Z,-2.00
2019-01-20T07:25:13.467Z,-2.00
2019-01-20T07:27:41.885Z,-2.00
2019-01-20T07:30:13.530Z,-2.00
2019-01-20T07:32:42.282Z,-2.00
2019-01-20T07:35:11.683Z,-2.00
2019-01-20T07:37:40.174Z,-2.00
2019-01-20T07:40:11.699Z,-2.00
2019-01-20T07:42:40.183Z,-2.00
2019-01-20T07:45:14.898Z,-2.00
2019-01-20T07:47:45.117Z,-2.00
2019-01-20T07:50:16.106Z,-2.00
2019-01-20T07:52:46.100Z,-2.10
2019-01-20T07:55:14.613Z,-2.10
2019-01-20T07:57:43.379Z,-2.10
2019-01-20T08:00:18.016Z,-2.10
2019-01-20T08:02:46.673Z,-2.10
2019-01-20T08:05:15.577Z,-2.10
2019-01-20T08:07:43.998Z,-2.10
2019-01-20T08:10:17.809Z,-2.10
2019-01-20T08:13:05.711Z,-2.10
2019-01-20T08:15:35.425Z,-2.10
2019-01-20T08:18:04.985Z,-2.10
2019-01-20T08:20:33.445Z,-2.00
2019-01-20T08:23:03.253Z,-2.00
2019-01-20T08:25:31.910Z,-2.00
2019-01-20T08:28:00.321Z,-1.90
2019-01-20T08:30:28.942Z,-1.80
2019-01-20T08:32:57.358Z,-1.80
2019-01-20T08:35:26.433Z,-1.80
2019-01-20T08:37:55.230Z,-1.80
2019-01-20T08:40:25.946Z,-1.70
2019-01-20T08:42:54.644Z,-1.70
2019-01-20T08:45:32.434Z,-1.60
2019-01-20T08:48:04.197Z,-1.60
2019-01-20T08:50:33.070Z,-1.50
2019-01-20T08:53:01.571Z,-1.50
2019-01-20T08:55:30.042Z,-1.50
2019-01-20T08:58:00.066Z,-1.50
2019-01-20T09:00:28.611Z,-1.40
2019-01-20T09:02:57.326Z,-1.40
2019-01-20T09:05:26.219Z,-1.30
2019-01-20T09:07:54.893Z,-1.30
2019-01-20T09:10:25.184Z,-1.20
2019-01-20T09:12:54.824Z,-1.10
2019-01-20T09:15:23.524Z,-1.00
2019-01-20T09:17:52.292Z,-1.00
2019-01-20T09:20:20.779Z,-0.90
2019-01-20T09:22:49.569Z,-0.90
2019-01-20T09:25:18.234Z,-0.80
2019-01-20T09:27:46.854Z,-0.70
2019-01-20T09:30:20.929Z,-0.60
2019-01-20T09:32:49.959Z,-0.60
2019-01-20T09:35:18.392Z,-0.50
2019-01-20T09:37:47.329Z,-0.40
2019-01-20T09:40:17.683Z,-0.30
2019-01-20T09:42:46.647Z,-0.20
2019-01-20T09:45:25.547Z,-0.20
2019-01-20T09:47:54.082Z,-0.10
2019-01-20T09:50:22.935Z,0.00
2019-01-20T09:52:51.631Z,0.10
2019-01-20T09:55:20.287Z,0.20
2019-01-20T09:57:48.971Z,0.30
2019-01-20T10:00:26.278Z,0.50
2019-01-20T10:02:55.109Z,0.60
2019-01-20T10:05:23.667Z,0.70
2019-01-20T10:07:52.630Z,0.90
2019-01-20T10:10:21.114Z,1.00
2019-01-20T10:12:49.794Z,1.10
2019-01-20T10:15:18.498Z,1.30
2019-01-20T10:17:46.938Z,1.40
2019-01-20T10:20:24.169Z,1.60
2019-01-20T10:22:52.635Z,1.70
2019-01-20T10:25:21.104Z,1.90
2019-01-20T10:27:51.433Z,2.00
2019-01-20T10:30:31.569Z,2.10
2019-01-20T10:33:00.563Z,2.20
2019-01-20T10:35:34.061Z,2.40
2019-01-20T10:38:04.541Z,2.50
2019-01-20T10:40:33.378Z,2.70
2019-01-20T10:43:02.166Z,2.80
2019-01-20T10:45:30.638Z,2.90
2019-01-20T10:47:59.446Z,3.10
2019-01-20T10:50:27.921Z,3.20
2019-01-20T10:52:56.711Z,3.40
2019-01-20T10:55:25.191Z,3.50
2019-01-20T10:57:53.991Z,3.70
2019-01-20T11:00:25.726Z,3.90
2019-01-20T11:02:54.537Z,4.00
2019-01-20T11:05:25.132Z,4.10
2019-01-20T11:07:53.687Z,4.20
2019-01-20T11:10:22.415Z,4.30
2019-01-20T11:12:51.111Z,4.40
2019-01-20T11:15:19.703Z,4.50
2019-01-20T11:17:48.478Z,4.60
2019-01-20T11:20:22.351Z,4.70
2019-01-20T11:22:51.065Z,4.80
2019-01-20T11:25:31.313Z,4.90
2019-01-20T11:28:00.006Z,5.00
2019-01-20T11:30:28.691Z,5.10
2019-01-20T11:32:57.503Z,5.30
2019-01-20T11:35:26.166Z,5.30
2019-01-20T11:37:54.969Z,5.40
2019-01-20T11:40:23.734Z,5.50
2019-01-20T11:42:52.356Z,5.60
2019-01-20T11:45:30.928Z,5.80
2019-01-20T11:47:59.734Z,5.90
2019-01-20T11:50:28.730Z,6.20
2019-01-20T11:52:57.431Z,6.40
2019-01-20T11:55:26.205Z,6.70
2019-01-20T11:57:54.987Z,6.90
2019-01-20T12:00:31.696Z,7.10
2019-01-20T12:03:00.280Z,7.30
2019-01-20T12:05:29.090Z,7.50
2019-01-20T12:07:57.651Z,7.60
2019-01-20T12:10:26.176Z,7.80
2019-01-20T12:12:56.354Z,8.00
2019-01-20T12:15:25.095Z,8.20
2019-01-20T12:17:53.505Z,8.40
2019-01-20T12:20:22.270Z,8.50
2019-01-20T12:22:51.053Z,8.70
2019-01-20T12:25:20.637Z,8.80
2019-01-20T12:27:49.447Z,9.00
2019-01-20T12:30:29.723Z,9.20
2019-01-20T12:33:01.215Z,9.40
2019-01-20T12:35:29.954Z,9.50
2019-01-20T12:37:58.621Z,9.60
2019-01-20T12:40:29.746Z,9.80
2019-01-20T12:42:58.662Z,9.90
2019-01-20T12:45:27.252Z,10.00
2019-01-20T12:47:55.649Z,10.10
2019-01-20T12:50:24.394Z,10.20
2019-01-20T12:52:52.986Z,10.30
2019-01-20T12:55:21.688Z,10.40
2019-01-20T12:57:50.475Z,10.50
2019-01-20T13:00:20.571Z,10.60
2019-01-20T13:02:49.302Z,10.70
2019-01-20T13:05:17.794Z,10.70
2019-01-20T13:07:46.784Z,10.80
2019-01-20T13:10:17.770Z,10.90
2019-01-20T13:12:46.766Z,11.00
2019-01-20T13:15:18.262Z,11.10
2019-01-20T13:17:47.023Z,11.10
2019-01-20T13:20:18.580Z,11.10
2019-01-20T13:22:47.403Z,11.20
2019-01-20T13:25:19.215Z,11.20
2019-01-20T13:27:47.698Z,11.30
2019-01-20T13:30:18.958Z,11.40
2019-01-20T13:32:47.525Z,11.60
2019-01-20T13:35:17.383Z,11.70
2019-01-20T13:37:51.347Z,11.80
2019-01-20T13:40:35.030Z,11.90
2019-01-20T13:43:09.438Z,12.00
2019-01-20T13:45:39.305Z,12.20
2019-01-20T13:48:07.756Z,12.20
2019-01-20T13:50:36.487Z,12.30
2019-01-20T13:53:05.185Z,12.30
2019-01-20T13:55:33.955Z,12.30
2019-01-20T13:58:02.567Z,12.30
2019-01-20T14:00:31.334Z,12.30
2019-01-20T14:02:59.779Z,12.20
2019-01-20T14:05:28.479Z,12.10
2019-01-20T14:07:57.279Z,12.00
2019-01-20T14:10:26.684Z,11.90
2019-01-20T14:12:55.452Z,11.70
2019-01-20T14:15:24.138Z,11.60
2019-01-20T14:17:53.029Z,11.50
2019-01-20T14:20:23.559Z,11.40
2019-01-20T14:22:52.457Z,11.20
2019-01-20T14:25:23.949Z,11.00
2019-01-20T14:27:52.707Z,10.90
2019-01-20T14:30:27.519Z,10.80
2019-01-20T14:32:55.939Z,10.70
2019-01-20T14:35:24.696Z,10.60
2019-01-20T14:37:53.363Z,10.60
2019-01-20T14:40:22.261Z,10.40
2019-01-20T14:42:52.195Z,10.40
2019-01-20T14:45:20.787Z,10.40
2019-01-20T14:47:49.536Z,10.30
2019-01-20T14:50:24.090Z,10.20
2019-01-20T14:52:52.850Z,10.10
2019-01-20T14:55:22.184Z,9.90
2019-01-20T14:57:51.171Z,9.70
2019-01-20T15:00:34.692Z,9.50
2019-01-20T15:03:03.584Z,9.40
2019-01-20T15:05:32.570Z,9.40
2019-01-20T15:08:01.487Z,9.30
2019-01-20T15:10:30.454Z,9.30
2019-01-20T15:12:59.446Z,9.30
2019-01-20T15:15:31.395Z,9.30
2019-01-20T15:18:00.294Z,9.30
2019-01-20T15:20:28.899Z,9.30
2019-01-20T15:22:57.342Z,9.30
2019-01-20T15:25:26.139Z,9.20
2019-01-20T15:27:55.334Z,9.10
2019-01-20T15:30:26.702Z,8.90
2019-01-20T15:32:55.894Z,8.80
2019-01-20T15:35:24.704Z,8.70
2019-01-20T15:37:53.672Z,8.40
2019-01-20T15:40:24.051Z,8.30
2019-01-20T15:42:52.882Z,8.00
2019-01-20T15:45:23.814Z,7.80
2019-01-20T15:47:52.753Z,7.60
2019-01-20T15:50:26.819Z,7.50
2019-01-20T15:52:55.308Z,7.30
2019-01-20T15:55:23.818Z,7.20
2019-01-20T15:57:52.659Z,7.00
2019-01-20T16:00:26.148Z,6.90
2019-01-20T16:02:54.972Z,6.80
2019-01-20T16:05:25.642Z,6.70
2019-01-20T16:07:54.206Z,6.50
2019-01-20T16:10:23.169Z,6.40
2019-01-20T16:12:51.940Z,6.30
2019-01-20T16:15:24.547Z,6.10
2019-01-20T16:17:55.059Z,6.10
2019-01-20T16:20:24.603Z,6.00
2019-01-20T16:22:53.649Z,5.90
2019-01-20T16:25:24.447Z,5.80
2019-01-20T16:27:53.289Z,5.70
2019-01-20T16:30:28.030Z,5.60
2019-01-20T16:32:56.887Z,5.50
2019-01-20T16:35:26.387Z,5.50
2019-01-20T16:37:56.116Z,5.40
2019-01-20T16:40:25.597Z,5.30
2019-01-20T16:42:54.299Z,5.30
2019-01-20T16:45:32.171Z,5.20
2019-01-20T16:47:59.337Z,5.10
2019-01-20T16:50:28.243Z,5.00
2019-01-20T16:52:56.727Z,4.90
2019-01-20T16:55:25.442Z,4.80
2019-01-20T16:57:53.861Z,4.80
2019-01-20T17:00:31.183Z,4.70
2019-01-20T17:02:59.671Z,4.70
2019-01-20T17:05:28.458Z,4.60
2019-01-20T17:07:58.067Z,4.60
2019-01-20T17:10:29.141Z,4.60
2019-01-20T17:12:57.875Z,4.60
2019-01-20T17:15:31.172Z,4.50
2019-01-20T17:17:59.967Z,4.50
2019-01-20T17:20:28.373Z,4.50
2019-01-20T17:22:56.850Z,4.40
2019-01-20T17:25:25.380Z,4.40
2019-01-20T17:27:54.291Z,4.30
2019-01-20T17:30:28.730Z,4.30
2019-01-20T17:32:57.499Z,4.30
2019-01-20T17:35:26.292Z,4.20
2019-01-20T17:37:54.844Z,4.20
2019-01-20T17:40:28.896Z,4.20
2019-01-20T17:42:57.771Z,4.10
2019-01-20T17:45:35.283Z,4.10
2019-01-20T17:48:04.449Z,4.00
2019-01-20T17:50:35.204Z,4.00
2019-01-20T17:53:06.690Z,3.90
2019-01-20T17:55:35.632Z,3.80
2019-01-20T17:58:05.185Z,3.70
2019-01-20T18:00:36.422Z,3.70
2019-01-20T18:03:26.051Z,3.60
2019-01-20T18:05:54.473Z,3.50
2019-01-20T18:08:23.241Z,3.50
2019-01-20T18:10:51.701Z,3.50
2019-01-20T18:13:20.495Z,3.50
2019-01-20T18:15:54.290Z,3.50
2019-01-20T18:18:19.106Z,3.50
2019-01-20T18:20:47.889Z,3.40
2019-01-20T18:23:16.576Z,3.40
2019-01-20T18:25:45.350Z,3.40
2019-01-20T18:28:14.164Z,3.40
2019-01-20T18:30:42.666Z,3.30
2019-01-20T18:33:11.246Z,3.30
2019-01-20T18:35:39.892Z,3.30
2019-01-20T18:38:08.395Z,3.20
2019-01-20T18:40:36.892Z,3.20
2019-01-20T18:43:05.530Z,3.10
2019-01-20T18:45:34.632Z,3.10
2019-01-20T18:48:06.091Z,3.00
2019-01-20T18:50:36.944Z,2.90
2019-01-20T18:53:05.806Z,2.90
2019-01-20T18:55:34.958Z,2.90
2019-01-20T18:58:04.286Z,2.80
2019-01-20T19:00:36.255Z,2.80
2019-01-20T19:03:05.653Z,2.80
2019-01-20T19:05:34.201Z,2.80
2019-01-20T19:08:03.108Z,2.80
2019-01-20T19:10:31.587Z,2.80
2019-01-20T19:13:00.189Z,2.80
2019-01-20T19:15:29.007Z,2.80
2019-01-20T19:17:57.408Z,2.80
2019-01-20T19:20:26.693Z,2.70
2019-01-20T19:22:59.296Z,2.70
2019-01-20T19:25:27.697Z,2.60
2019-01-20T19:27:56.289Z,2.60
2019-01-20T19:30:27.144Z,2.50
2019-01-20T19:32:55.677Z,2.50
2019-01-20T19:35:24.921Z,2.50
2019-01-20T19:37:53.714Z,2.50
2019-01-20T19:40:22.186Z,2.40
2019-01-20T19:42:50.640Z,2.40
2019-01-20T19:45:20.949Z,2.40
2019-01-20T19:47:49.892Z,2.30
2019-01-20T19:50:19.425Z,2.30
2019-01-20T19:52:48.018Z,2.30
2019-01-20T19:55:20.093Z,2.30
2019-01-20T19:57:48.707Z,2.20
2019-01-20T20:00:20.382Z,2.20
2019-01-20T20:02:49.274Z,2.10
2019-01-20T20:05:19.490Z,2.10
2019-01-20T20:07:50.343Z,2.10
2019-01-20T20:10:21.474Z,2.10
2019-01-20T20:12:50.576Z,2.00
2019-01-20T20:15:21.394Z,2.00
2019-01-20T20:17:50.288Z,2.00
2019-01-20T20:20:20.904Z,2.00
2019-01-20T20:22:49.909Z,1.90
2019-01-20T20:25:20.671Z,1.90
2019-01-20T20:27:49.158Z,1.80
2019-01-20T20:30:23.028Z,1.80
2019-01-20T20:32:51.677Z,1.80
2019-01-20T20:35:20.387Z,1.70
2019-01-20T20:37:48.864Z,1.70
2019-01-20T20:40:19.254Z,1.70
2019-01-20T20:42:48.083Z,1.60
2019-01-20T20:45:19.130Z,1.60
2019-01-20T20:47:47.711Z,1.60
2019-01-20T20:50:17.636Z,1.60
2019-01-20T20:52:46.694Z,1.70
2019-01-20T20:55:16.040Z,1.70
2019-01-20T20:57:44.622Z,1.70
2019-01-20T21:00:16.190Z,1.60
2019-01-20T21:02:44.936Z,1.60
2019-01-20T21:05:13.768Z,1.60
2019-01-20T21:07:42.524Z,1.50
2019-01-20T21:10:16.686Z,1.40
2019-01-20T21:12:45.554Z,1.40
2019-01-20T21:15:18.367Z,1.40
2019-01-20T21:17:48.265Z,1.30
2019-01-20T21:20:19.655Z,1.30
2019-01-20T21:22:48.127Z,1.20
2019-01-20T21:25:16.692Z,1.20
2019-01-20T21:27:45.157Z,1.10
2019-01-20T21:30:16.978Z,1.10
2019-01-20T21:32:45.446Z,1.10
2019-01-20T21:35:14.436Z,1.00
2019-01-20T21:37:43.239Z,1.00
2019-01-20T21:40:14.331Z,1.00
2019-01-20T21:42:43.048Z,1.00
2019-01-20T21:45:13.542Z,0.90
2019-01-20T21:47:42.531Z,0.90
2019-01-20T21:50:19.663Z,0.90
2019-01-20T21:52:48.577Z,0.90
2019-01-20T21:55:17.457Z,0.90
2019-01-20T21:57:46.139Z,0.80
2019-01-20T22:00:17.679Z,0.80
2019-01-20T22:02:46.583Z,0.70
2019-01-20T22:05:15.459Z,0.70
2019-01-20T22:07:44.147Z,0.70
2019-01-20T22:10:15.478Z,0.70
2019-01-20T22:12:43.968Z,0.70
2019-01-20T22:15:13.705Z,0.60
2019-01-20T22:17:42.254Z,0.60
2019-01-20T22:20:14.055Z,0.60
2019-01-20T22:22:43.014Z,0.50
2019-01-20T22:25:12.620Z,0.50
2019-01-20T22:27:41.099Z,0.50
2019-01-20T22:30:18.067Z,0.40
2019-01-20T22:32:46.858Z,0.40
2019-01-20T22:35:17.395Z,0.40
2019-01-20T22:37:46.082Z,0.40
2019-01-20T22:40:19.199Z,0.40
2019-01-20T22:42:47.955Z,0.30
2019-01-20T22:45:18.735Z,0.30
2019-01-20T22:47:47.226Z,0.30
2019-01-20T22:50:15.724Z,0.30
2019-01-20T22:52:44.278Z,0.20
2019-01-20T22:55:16.481Z,0.20
2019-01-20T22:57:45.549Z,0.20
2019-01-20T23:00:19.918Z,0.20
2019-01-20T23:02:49.222Z,0.20
2019-01-20T23:05:17.917Z,0.20
2019-01-20T23:07:46.378Z,0.10
2019-01-20T23:10:14.858Z,0.10
2019-01-20T23:12:43.640Z,0.10
2019-01-20T23:15:12.125Z,0.10
2019-01-20T23:17:40.582Z,0.10
2019-01-20T23:20:13.470Z,0.20
2019-01-20T23:22:41.914Z,0.20
2019-01-20T23:25:10.659Z,0.10
2019-01-20T23:27:39.486Z,0.10
2019-01-20T23:30:12.911Z,0.10
2019-01-20T23:32:41.357Z,0.00
2019-01-20T23:35:10.256Z,0.00
2019-01-20T23:37:38.987Z,0.00
2019-01-20T23:40:13.034Z,-0.10
2019-01-20T23:42:41.566Z,-0.10
2019-01-20T23:45:13.286Z,-0.10
2019-01-20T23:47:41.874Z,-0.20
2019-01-20T23:50:16.047Z,-0.20
2019-01-20T23:52:44.912Z,-0.20
2019-01-20T23:55:15.729Z,-0.20
2019-01-20T23:57:44.449Z,-0.20
